createdAt,value
2018-11-06T00:01:11.850Z,95.80
2018-11-06T00:03:20.899Z,95.90
2018-11-06T00:05:24.013Z,95.90
2018-11-06T00:07:27.158Z,95.90
2018-11-06T00:09:30.682Z,96.00
2018-11-06T00:11:34.791Z,96.00
2018-11-06T00:13:38.299Z,96.10
2018-11-06T00:15:41.435Z,96.20
2018-11-06T00:17:44.546Z,96.20
2018-11-06T00:19:47.652Z,96.30
2018-11-06T00:21:50.773Z,96.20
2018-11-06T00:23:53.893Z,96.20
2018-11-06T00:25:56.956Z,96.60
2018-11-06T00:28:00.036Z,96.50
2018-11-06T00:30:06.317Z,96.50
2018-11-06T00:32:09.488Z,96.50
2018-11-06T00:34:12.709Z,96.40
2018-11-06T00:36:15.839Z,96.40
2018-11-06T00:38:18.913Z,96.40
2018-11-06T00:40:22.023Z,96.40
2018-11-06T00:42:25.172Z,96.40
2018-11-06T00:44:28.313Z,96.40
2018-11-06T00:46:31.417Z,96.40
2018-11-06T00:48:35.667Z,96.40
2018-11-06T00:50:38.754Z,96.40
2018-11-06T00:52:42.908Z,96.40
2018-11-06T00:54:46.015Z,96.40
2018-11-06T00:56:49.134Z,96.40
2018-11-06T00:58:52.328Z,96.50
2018-11-06T01:00:55.429Z,96.50
2018-11-06T01:02:58.631Z,96.50
2018-11-06T01:05:03.119Z,96.70
2018-11-06T01:07:06.231Z,96.50
2018-11-06T01:09:13.862Z,96.70
2018-11-06T01:11:16.994Z,96.70
2018-11-06T01:13:20.072Z,96.70
2018-11-06T01:15:23.197Z,96.90
2018-11-06T01:17:26.386Z,96.80
2018-11-06T01:19:29.529Z,96.90
2018-11-06T01:21:33.795Z,97.00
2018-11-06T01:23:37.180Z,97.10
2018-11-06T01:25:40.295Z,97.00
2018-11-06T01:27:43.488Z,96.20
2018-11-06T01:29:46.615Z,95.90
2018-11-06T01:31:49.789Z,95.70
2018-11-06T01:33:52.888Z,95.50
2018-11-06T01:35:56.090Z,95.10
2018-11-06T01:37:59.247Z,94.80
2018-11-06T01:40:04.152Z,94.90
2018-11-06T01:42:07.283Z,94.40
2018-11-06T01:44:10.535Z,94.00
2018-11-06T01:46:13.646Z,94.10
2018-11-06T01:48:16.783Z,94.00
2018-11-06T01:50:19.899Z,93.90
2018-11-06T01:52:22.985Z,93.80
2018-11-06T01:54:26.088Z,93.80
2018-11-06T01:56:29.202Z,93.80
2018-11-06T01:58:33.812Z,93.70
2018-11-06T02:00:36.937Z,93.50
2018-11-06T02:02:40.191Z,93.30
2018-11-06T02:04:43.327Z,93.30
2018-11-06T02:06:46.446Z,93.20
2018-11-06T02:08:49.552Z,93.20
2018-11-06T02:10:52.668Z,93.30
2018-11-06T02:12:56.032Z,93.50
2018-11-06T02:14:59.141Z,93.50
2018-11-06T02:17:03.820Z,93.80
2018-11-06T02:19:06.974Z,93.90
2018-11-06T02:21:10.146Z,94.00
2018-11-06T02:23:13.274Z,94.10
2018-11-06T02:25:16.465Z,94.10
2018-11-06T02:27:20.556Z,94.20
2018-11-06T02:29:23.752Z,94.20
2018-11-06T02:31:26.900Z,94.40
2018-11-06T02:33:30.094Z,94.40
2018-11-06T02:35:35.677Z,94.50
2018-11-06T02:37:38.805Z,94.50
2018-11-06T02:39:41.917Z,94.80
2018-11-06T02:41:45.059Z,94.90
2018-11-06T02:43:48.198Z,94.90
2018-11-06T02:45:51.339Z,94.90
2018-11-06T02:47:54.421Z,94.90
2018-11-06T02:49:57.648Z,95.00
2018-11-06T02:52:00.913Z,95.10
2018-11-06T02:54:05.846Z,95.20
2018-11-06T02:56:08.954Z,95.20
2018-11-06T02:58:12.098Z,95.20
2018-11-06T03:00:17.199Z,95.30
2018-11-06T03:02:20.311Z,95.20
2018-11-06T03:04:23.398Z,95.40
2018-11-06T03:06:26.523Z,95.50
2018-11-06T03:08:29.673Z,95.50
2018-11-06T03:10:34.487Z,95.60
2018-11-06T03:12:37.830Z,95.70
2018-11-06T03:14:40.929Z,95.70
2018-11-06T03:16:44.070Z,95.80
2018-11-06T03:18:47.200Z,95.70
2018-11-06T03:20:50.335Z,95.90
2018-11-06T03:22:53.527Z,95.80
2018-11-06T03:24:56.602Z,96.00
2018-11-06T03:26:59.845Z,95.90
2018-11-06T03:29:04.485Z,96.00
2018-11-06T03:31:07.597Z,96.00
2018-11-06T03:33:10.753Z,96.60
2018-11-06T03:35:14.672Z,96.70
2018-11-06T03:37:17.716Z,97.10
2018-11-06T03:39:20.833Z,96.90
2018-11-06T03:41:23.869Z,97.00
2018-11-06T03:43:26.978Z,97.00
2018-11-06T03:45:30.105Z,97.10
2018-11-06T03:47:35.255Z,97.10
2018-11-06T03:49:38.335Z,97.20
2018-11-06T03:51:41.427Z,97.40
2018-11-06T03:53:44.499Z,97.40
2018-11-06T03:55:47.607Z,97.40
2018-11-06T03:57:50.657Z,97.70
2018-11-06T03:59:53.740Z,97.60
2018-11-06T04:01:57.057Z,97.60
2018-11-06T04:04:00.184Z,97.50
2018-11-06T04:06:04.654Z,97.50
2018-11-06T04:08:07.751Z,97.60
2018-11-06T04:10:11.636Z,97.60
2018-11-06T04:12:14.705Z,97.70
2018-11-06T04:14:17.859Z,97.70
2018-11-06T04:16:20.946Z,97.60
2018-11-06T04:18:24.048Z,97.90
2018-11-06T04:20:27.160Z,97.80
2018-11-06T04:22:30.390Z,97.90
2018-11-06T04:24:35.358Z,97.90
2018-11-06T04:26:38.877Z,98.20
2018-11-06T04:28:41.993Z,98.00
2018-11-06T04:30:45.374Z,98.00
2018-11-06T04:32:48.441Z,97.90
2018-11-06T04:34:51.486Z,98.10
2018-11-06T04:36:54.903Z,98.20
2018-11-06T04:38:58.508Z,98.40
2018-11-06T04:41:01.554Z,98.20
2018-11-06T04:43:05.424Z,98.00
2018-11-06T04:45:09.784Z,98.20
2018-11-06T04:47:12.911Z,97.90
2018-11-06T04:49:15.982Z,98.20
2018-11-06T04:51:19.408Z,98.00
2018-11-06T04:53:22.546Z,98.10
2018-11-06T04:55:25.680Z,98.00
2018-11-06T04:57:28.764Z,98.10
2018-11-06T04:59:33.525Z,98.20
2018-11-06T05:01:36.644Z,98.20
2018-11-06T05:03:45.707Z,98.30
2018-11-06T05:05:48.813Z,98.80
2018-11-06T05:07:51.927Z,98.70
2018-11-06T05:09:55.048Z,98.50
2018-11-06T05:11:58.108Z,98.40
2018-11-06T05:14:01.160Z,98.30
2018-11-06T05:16:05.573Z,98.60
2018-11-06T05:18:08.617Z,98.90
2018-11-06T05:20:14.994Z,98.40
2018-11-06T05:22:18.072Z,98.70
2018-11-06T05:24:21.178Z,98.70
2018-11-06T05:26:24.245Z,98.70
2018-11-06T05:28:27.661Z,98.60
2018-11-06T05:30:30.742Z,99.60
2018-11-06T05:32:35.266Z,99.40
2018-11-06T05:34:38.712Z,99.80
2018-11-06T05:36:41.838Z,99.30
2018-11-06T05:38:45.004Z,99.20
2018-11-06T05:40:59.664Z,99.30
2018-11-06T05:43:04.450Z,99.30
2018-11-06T05:45:07.593Z,99.50
2018-11-06T05:47:10.725Z,99.40
2018-11-06T05:49:13.853Z,99.40
2018-11-06T05:51:16.952Z,99.90
2018-11-06T05:53:20.144Z,99.80
2018-11-06T05:55:23.240Z,99.90
2018-11-06T05:57:26.496Z,99.90
2018-11-06T05:59:29.580Z,99.90
2018-11-06T06:01:34.317Z,99.90
2018-11-06T06:03:37.421Z,99.90
2018-11-06T06:05:40.925Z,99.90
2018-11-06T06:07:44.080Z,99.90
2018-11-06T06:09:47.125Z,99.90
2018-11-06T06:11:50.360Z,99.90
2018-11-06T06:13:53.428Z,99.90
2018-11-06T06:15:56.488Z,99.90
2018-11-06T06:17:59.972Z,99.90
2018-11-06T06:20:03.523Z,99.90
2018-11-06T06:22:06.680Z,99.90
2018-11-06T06:24:09.938Z,99.90
2018-11-06T06:26:13.087Z,99.90
2018-11-06T06:28:16.225Z,99.90
2018-11-06T06:30:19.296Z,99.90
2018-11-06T06:32:22.505Z,99.90
2018-11-06T06:34:25.577Z,99.90
2018-11-06T06:36:28.679Z,99.90
2018-11-06T06:38:33.455Z,99.90
2018-11-06T06:40:36.649Z,99.90
2018-11-06T06:42:42.009Z,99.90
2018-11-06T06:44:45.233Z,99.90
2018-11-06T06:46:48.265Z,99.90
2018-11-06T06:48:51.421Z,99.90
2018-11-06T06:50:54.546Z,99.90
2018-11-06T06:52:57.727Z,99.90
2018-11-06T06:55:00.774Z,99.90
2018-11-06T06:57:05.108Z,99.90
2018-11-06T06:59:08.209Z,99.90
2018-11-06T07:01:12.437Z,99.90
2018-11-06T07:03:15.537Z,99.90
2018-11-06T07:05:20.749Z,99.90
2018-11-06T07:07:23.794Z,99.90
2018-11-06T07:09:26.911Z,99.90
2018-11-06T07:11:29.956Z,99.90
2018-11-06T07:13:33.538Z,99.90
2018-11-06T07:15:37.563Z,99.90
2018-11-06T07:17:41.109Z,99.90
2018-11-06T07:19:44.201Z,99.90
2018-11-06T07:21:47.278Z,99.90
2018-11-06T07:23:51.177Z,99.90
2018-11-06T07:25:55.315Z,99.90
2018-11-06T07:27:59.017Z,99.90
2018-11-06T07:30:04.140Z,99.90
2018-11-06T07:32:07.250Z,99.90
2018-11-06T07:34:10.282Z,99.90
2018-11-06T07:36:13.372Z,99.90
2018-11-06T07:38:16.718Z,99.50
2018-11-06T07:40:20.285Z,99.00
2018-11-06T07:42:23.825Z,98.70
2018-11-06T07:44:27.324Z,98.50
2018-11-06T07:46:30.381Z,98.40
2018-11-06T07:48:35.005Z,98.50
2018-11-06T07:50:38.844Z,98.30
2018-11-06T07:52:42.325Z,98.20
2018-11-06T07:54:45.389Z,98.30
2018-11-06T07:56:48.389Z,98.20
2018-11-06T07:58:51.736Z,97.40
2018-11-06T08:00:54.810Z,96.90
2018-11-06T08:02:57.886Z,96.70
2018-11-06T08:05:00.967Z,97.10
2018-11-06T08:07:05.854Z,96.80
2018-11-06T08:09:09.780Z,97.40
2018-11-06T08:11:12.916Z,97.30
2018-11-06T08:13:16.432Z,97.10
2018-11-06T08:15:19.512Z,97.00
2018-11-06T08:17:22.829Z,97.10
2018-11-06T08:19:25.837Z,96.60
2018-11-06T08:21:28.849Z,96.40
2018-11-06T08:23:33.745Z,96.30
2018-11-06T08:25:36.808Z,95.80
2018-11-06T08:27:40.719Z,95.30
2018-11-06T08:29:44.661Z,95.60
2018-11-06T08:31:48.741Z,95.60
2018-11-06T08:33:51.278Z,94.00
2018-11-06T08:35:54.826Z,94.80
2018-11-06T08:37:57.895Z,94.60
2018-11-06T08:40:01.425Z,93.90
2018-11-06T08:42:06.250Z,95.30
2018-11-06T08:44:09.861Z,95.20
2018-11-06T08:46:12.967Z,94.40
2018-11-06T08:48:16.483Z,94.00
2018-11-06T08:50:19.924Z,93.50
2018-11-06T08:52:23.532Z,93.60
2018-11-06T08:54:27.057Z,93.10
2018-11-06T08:56:30.080Z,93.10
2018-11-06T08:58:34.752Z,93.10
2018-11-06T09:00:38.272Z,92.30
2018-11-06T09:02:42.092Z,91.70
2018-11-06T09:04:45.366Z,91.80
2018-11-06T09:06:48.408Z,91.90
2018-11-06T09:08:52.076Z,91.90
2018-11-06T09:10:55.179Z,91.30
2018-11-06T09:12:58.452Z,91.40
2018-11-06T09:15:01.551Z,91.90
2018-11-06T09:17:05.384Z,91.10
2018-11-06T09:19:08.385Z,90.70
2018-11-06T09:21:11.518Z,90.80
2018-11-06T09:23:15.049Z,90.10
2018-11-06T09:25:18.845Z,90.00
2018-11-06T09:27:21.883Z,89.60
2018-11-06T09:29:25.014Z,89.60
2018-11-06T09:31:28.775Z,87.60
2018-11-06T09:33:33.813Z,87.30
2018-11-06T09:35:37.537Z,86.10
2018-11-06T09:37:41.496Z,87.00
2018-11-06T09:39:44.555Z,87.00
2018-11-06T09:41:47.582Z,85.50
2018-11-06T09:43:50.720Z,84.10
2018-11-06T09:45:53.844Z,84.20
2018-11-06T09:47:56.895Z,84.00
2018-11-06T09:50:00.404Z,85.40
2018-11-06T09:52:04.846Z,83.40
2018-11-06T09:54:07.892Z,82.80
2018-11-06T09:56:11.031Z,82.40
2018-11-06T10:02:47.151Z,81.30
2018-11-06T10:04:50.187Z,81.70
2018-11-06T10:06:53.486Z,81.10
2018-11-06T10:08:56.529Z,81.50
2018-11-06T10:10:59.604Z,81.10
2018-11-06T10:13:03.914Z,80.00
2018-11-06T10:15:09.904Z,77.60
2018-11-06T10:17:13.033Z,78.80
2018-11-06T10:19:16.133Z,79.40
2018-11-06T10:21:19.259Z,78.70
2018-11-06T10:23:22.294Z,77.90
2018-11-06T10:25:25.422Z,76.40
2018-11-06T10:27:28.428Z,75.20
2018-11-06T10:29:31.453Z,77.00
2018-11-06T10:31:35.237Z,77.20
2018-11-06T10:33:38.268Z,76.30
2018-11-06T10:35:41.379Z,77.10
2018-11-06T10:37:44.524Z,75.50
2018-11-06T10:39:47.565Z,74.10
2018-11-06T10:41:50.927Z,72.10
2018-11-06T10:43:53.988Z,73.00
2018-11-06T10:45:57.065Z,74.40
2018-11-06T10:48:00.174Z,74.40
2018-11-06T10:50:05.088Z,75.20
2018-11-06T10:52:08.137Z,73.50
2018-11-06T10:54:11.211Z,72.70
2018-11-06T10:56:14.281Z,71.10
2018-11-06T10:58:17.427Z,72.10
2018-11-06T11:00:26.616Z,71.80
2018-11-06T11:02:35.333Z,71.20
2018-11-06T11:04:38.412Z,70.90
2018-11-06T11:06:41.738Z,71.00
2018-11-06T11:08:44.869Z,69.40
2018-11-06T11:10:48.392Z,69.70
2018-11-06T11:12:51.479Z,71.00
2018-11-06T11:14:54.544Z,71.70
2018-11-06T11:16:58.123Z,70.20
2018-11-06T11:19:01.368Z,69.10
2018-11-06T11:21:06.657Z,68.40
2018-11-06T11:23:09.751Z,69.80
2018-11-06T11:25:14.040Z,69.80
2018-11-06T11:27:17.838Z,68.60
2018-11-06T11:29:20.926Z,69.70
2018-11-06T11:31:23.953Z,69.20
2018-11-06T11:33:27.014Z,68.60
2018-11-06T11:35:30.096Z,67.20
2018-11-06T11:37:35.536Z,67.80
2018-11-06T11:39:38.573Z,67.50
2018-11-06T11:41:41.620Z,67.90
2018-11-06T11:43:44.697Z,67.10
2018-11-06T11:45:47.796Z,67.20
2018-11-06T11:47:50.790Z,66.00
2018-11-06T11:49:53.833Z,65.90
2018-11-06T11:51:56.916Z,65.50
2018-11-06T11:54:00.323Z,65.30
2018-11-06T11:56:05.076Z,65.40
2018-11-06T11:58:08.167Z,65.40
2018-11-06T12:00:14.048Z,65.90
2018-11-06T12:02:17.170Z,65.40
2018-11-06T12:04:20.129Z,63.90
2018-11-06T12:06:23.239Z,64.50
2018-11-06T12:08:26.405Z,63.60
2018-11-06T12:10:29.637Z,64.00
2018-11-06T12:12:34.324Z,63.40
2018-11-06T12:14:37.803Z,63.70
2018-11-06T12:16:40.868Z,63.70
2018-11-06T12:18:43.917Z,63.50
2018-11-06T12:20:47.093Z,62.60
2018-11-06T12:22:50.173Z,61.70
2018-11-06T12:24:53.345Z,62.90
2018-11-06T12:26:56.320Z,62.40
2018-11-06T12:28:59.329Z,62.00
2018-11-06T12:31:04.127Z,63.00
2018-11-06T12:33:07.214Z,63.00
2018-11-06T12:35:11.437Z,62.80
2018-11-06T12:37:14.530Z,61.80
2018-11-06T12:39:17.613Z,62.10
2018-11-06T12:41:20.691Z,61.50
2018-11-06T12:43:23.786Z,62.00
2018-11-06T12:45:26.904Z,61.50
2018-11-06T12:47:29.956Z,60.80
2018-11-06T12:49:34.215Z,60.20
2018-11-06T12:51:37.271Z,61.30
2018-11-06T12:53:40.414Z,61.00
2018-11-06T12:55:43.458Z,60.70
2018-11-06T12:57:46.879Z,60.70
2018-11-06T12:59:49.939Z,61.50
2018-11-06T13:01:52.995Z,62.00
2018-11-06T13:03:56.063Z,60.70
2018-11-06T13:05:59.179Z,61.10
2018-11-06T13:08:03.589Z,60.80
2018-11-06T13:10:07.084Z,60.60
2018-11-06T13:12:10.149Z,60.80
2018-11-06T13:14:13.198Z,60.60
2018-11-06T13:16:16.309Z,60.90
2018-11-06T13:18:19.725Z,60.60
2018-11-06T13:20:22.804Z,60.40
2018-11-06T13:22:25.928Z,61.00
2018-11-06T13:24:29.015Z,60.80
2018-11-06T13:26:33.673Z,60.40
2018-11-06T13:28:36.635Z,60.20
2018-11-06T13:30:39.730Z,60.40
2018-11-06T13:32:43.728Z,60.10
2018-11-06T13:34:46.777Z,60.30
2018-11-06T13:36:50.875Z,60.50
2018-11-06T13:38:54.009Z,61.10
2018-11-06T13:40:57.037Z,60.80
2018-11-06T13:43:00.215Z,60.10
2018-11-06T13:45:06.110Z,60.80
2018-11-06T13:47:09.019Z,61.80
2018-11-06T13:49:12.144Z,62.10
2018-11-06T13:51:15.341Z,62.80
2018-11-06T13:53:18.342Z,63.20
2018-11-06T13:55:21.459Z,63.20
2018-11-06T13:57:24.513Z,63.60
2018-11-06T13:59:27.617Z,63.80
2018-11-06T14:01:30.671Z,64.10
2018-11-06T14:03:35.225Z,65.00
2018-11-06T14:05:38.316Z,64.10
2018-11-06T14:07:41.405Z,63.90
2018-11-06T14:09:44.695Z,64.60
2018-11-06T14:11:47.790Z,64.40
2018-11-06T14:13:51.337Z,64.60
2018-11-06T14:15:54.406Z,64.60
2018-11-06T14:17:57.445Z,64.40
2018-11-06T14:20:00.603Z,65.10
2018-11-06T14:22:04.386Z,65.00
2018-11-06T14:24:07.525Z,65.40
2018-11-06T14:26:10.724Z,65.20
2018-11-06T14:28:13.897Z,65.30
2018-11-06T14:30:18.345Z,65.40
2018-11-06T14:32:21.456Z,65.90
2018-11-06T14:34:24.657Z,66.00
2018-11-06T14:36:27.711Z,65.90
2018-11-06T14:38:30.765Z,66.20
2018-11-06T14:40:35.391Z,66.40
2018-11-06T14:42:39.123Z,66.70
2018-11-06T14:44:42.453Z,67.10
2018-11-06T14:46:45.484Z,67.20
2018-11-06T14:48:48.688Z,67.40
2018-11-06T14:50:51.937Z,67.50
2018-11-06T14:52:54.970Z,67.90
2018-11-06T14:54:58.469Z,68.20
2018-11-06T14:57:01.556Z,68.70
2018-11-06T14:59:06.114Z,68.90
2018-11-06T15:01:09.203Z,69.00
2018-11-06T15:03:12.332Z,69.60
2018-11-06T15:05:16.124Z,70.00
2018-11-06T15:07:19.118Z,70.70
2018-11-06T15:09:23.642Z,70.90
2018-11-06T15:11:26.815Z,70.70
2018-11-06T15:13:29.940Z,71.50
2018-11-06T15:15:34.751Z,71.90
2018-11-06T15:17:38.021Z,71.90
2018-11-06T15:19:41.099Z,72.20
2018-11-06T15:21:44.248Z,72.60
2018-11-06T15:23:47.328Z,72.90
2018-11-06T15:25:50.386Z,73.10
2018-11-06T15:27:53.476Z,73.40
2018-11-06T15:29:57.964Z,73.80
2018-11-06T15:32:01.066Z,74.40
2018-11-06T15:34:05.352Z,75.40
2018-11-06T15:36:08.443Z,75.30
2018-11-06T15:38:12.005Z,75.50
2018-11-06T15:40:16.494Z,75.80
2018-11-06T15:42:19.776Z,76.20
2018-11-06T15:44:22.899Z,76.30
2018-11-06T15:46:26.011Z,76.50
2018-11-06T15:48:29.084Z,77.00
2018-11-06T15:50:34.041Z,77.30
2018-11-06T15:52:37.284Z,77.40
2018-11-06T15:54:41.288Z,77.50
2018-11-06T15:56:44.219Z,77.70
2018-11-06T15:58:47.698Z,77.90
2018-11-06T16:00:50.847Z,78.30
2018-11-06T16:02:53.853Z,78.90
2018-11-06T16:04:56.916Z,78.90
2018-11-06T16:07:00.264Z,79.20
2018-11-06T16:09:06.001Z,79.20
2018-11-06T16:11:09.109Z,79.20
2018-11-06T16:13:12.232Z,79.40
2018-11-06T16:15:15.413Z,79.90
2018-11-06T16:17:18.515Z,80.00
2018-11-06T16:19:21.587Z,80.20
2018-11-06T16:21:24.713Z,80.20
2018-11-06T16:23:27.823Z,79.80
2018-11-06T16:25:30.965Z,79.80
2018-11-06T16:27:35.695Z,80.10
2018-11-06T16:29:38.767Z,80.00
2018-11-06T16:31:41.805Z,79.90
2018-11-06T16:33:45.210Z,80.30
2018-11-06T16:35:48.396Z,81.00
2018-11-06T16:37:51.734Z,80.90
2018-11-06T16:39:54.867Z,81.20
2018-11-06T16:41:57.956Z,82.20
2018-11-06T16:44:00.982Z,82.30
2018-11-06T16:46:05.821Z,81.90
2018-11-06T16:48:08.947Z,82.90
2018-11-06T16:50:13.718Z,83.00
2018-11-06T16:52:16.956Z,83.90
2018-11-06T16:54:20.016Z,84.70
2018-11-06T16:56:23.102Z,85.80
2018-11-06T16:58:26.215Z,86.50
2018-11-06T17:00:29.358Z,86.60
2018-11-06T17:02:33.633Z,87.10
2018-11-06T17:04:36.685Z,88.40
2018-11-06T17:06:47.293Z,88.80
2018-11-06T17:08:50.658Z,89.40
2018-11-06T17:10:53.698Z,89.50
2018-11-06T17:12:56.849Z,90.10
2018-11-06T17:15:00.249Z,89.30
2018-11-06T17:17:05.292Z,89.30
2018-11-06T17:19:08.325Z,89.50
2018-11-06T17:21:11.913Z,89.10
2018-11-06T17:23:15.078Z,89.70
2018-11-06T17:25:19.464Z,89.70
2018-11-06T17:27:22.642Z,90.10
2018-11-06T17:29:25.700Z,90.40
2018-11-06T17:31:28.829Z,90.30
2018-11-06T17:33:33.689Z,90.30
2018-11-06T17:35:37.184Z,90.80
2018-11-06T17:37:40.656Z,90.80
2018-11-06T17:39:43.764Z,91.00
2018-11-06T17:41:46.881Z,91.30
2018-11-06T17:43:49.987Z,91.40
2018-11-06T17:45:53.044Z,91.70
2018-11-06T17:47:56.108Z,92.00
2018-11-06T17:49:59.226Z,92.00
2018-11-06T17:52:03.979Z,91.70
2018-11-06T17:54:07.011Z,92.00
2018-11-06T17:56:10.424Z,92.60
2018-11-06T17:58:13.496Z,92.20
2018-11-06T18:00:18.941Z,92.80
2018-11-06T18:02:23.244Z,92.90
2018-11-06T18:04:26.428Z,92.60
2018-11-06T18:06:29.419Z,92.40
2018-11-06T18:08:34.435Z,92.50
2018-11-06T18:10:37.975Z,92.60
2018-11-06T18:12:41.144Z,91.90
2018-11-06T18:14:44.254Z,92.60
2018-11-06T18:16:47.784Z,92.60
2018-11-06T18:18:51.183Z,92.70
2018-11-06T18:20:54.257Z,93.50
2018-11-06T18:22:57.380Z,93.50
2018-11-06T18:25:00.668Z,93.60
2018-11-06T18:27:05.865Z,93.50
2018-11-06T18:29:08.976Z,93.80
2018-11-06T18:31:12.048Z,94.20
2018-11-06T18:33:15.371Z,93.50
2018-11-06T18:35:18.822Z,93.60
2018-11-06T18:37:22.626Z,93.40
2018-11-06T18:39:26.131Z,93.20
2018-11-06T18:41:29.224Z,93.30
2018-11-06T18:43:34.130Z,93.50
2018-11-06T18:45:37.214Z,92.90
2018-11-06T18:47:40.977Z,93.60
2018-11-06T18:49:44.630Z,93.70
2018-11-06T18:51:48.389Z,93.20
2018-11-06T18:53:51.565Z,93.00
2018-11-06T18:55:54.750Z,93.60
2018-11-06T18:57:58.748Z,93.70
2018-11-06T19:00:03.504Z,93.80
2018-11-06T19:02:07.701Z,94.50
2018-11-06T19:04:10.919Z,94.40
2018-11-06T19:06:15.520Z,94.40
2018-11-06T19:08:18.669Z,93.90
2018-11-06T19:10:22.127Z,92.90
2018-11-06T19:12:25.356Z,93.10
2018-11-06T19:14:28.492Z,92.80
2018-11-06T19:16:33.917Z,93.20
2018-11-06T19:18:38.425Z,93.90
2018-11-06T19:20:42.081Z,93.70
2018-11-06T19:22:45.387Z,94.80
2018-11-06T19:24:48.459Z,94.80
2018-11-06T19:26:51.619Z,94.80
2018-11-06T19:28:56.183Z,94.70
2018-11-06T19:30:59.413Z,94.80
2018-11-06T19:33:04.393Z,94.30
2018-11-06T19:35:07.546Z,94.60
2018-11-06T19:37:10.657Z,94.80
2018-11-06T19:39:13.661Z,94.70
2018-11-06T19:41:16.736Z,94.20
2018-11-06T19:43:19.825Z,93.80
2018-11-06T19:45:24.695Z,94.30
2018-11-06T19:47:28.027Z,94.30
2018-11-06T19:49:31.068Z,94.60
2018-11-06T19:51:35.769Z,94.20
2018-11-06T19:53:38.870Z,94.40
2018-11-06T19:55:41.998Z,94.60
2018-11-06T19:57:45.137Z,95.50
2018-11-06T19:59:50.403Z,95.50
2018-11-06T20:01:54.305Z,95.00
2018-11-06T20:03:57.386Z,95.20
2018-11-06T20:06:01.745Z,95.50
2018-11-06T20:08:05.477Z,94.90
2018-11-06T20:10:12.380Z,94.80
2018-11-06T20:12:15.647Z,95.40
2018-11-06T20:14:19.346Z,94.70
2018-11-06T20:16:22.469Z,94.70
2018-11-06T20:18:25.542Z,94.90
2018-11-06T20:20:29.510Z,95.40
2018-11-06T20:22:35.203Z,95.70
2018-11-06T20:24:38.356Z,95.50
2018-11-06T20:26:41.574Z,95.90
2018-11-06T20:28:45.044Z,95.50
2018-11-06T20:30:48.511Z,96.20
2018-11-06T20:32:51.629Z,97.00
2018-11-06T20:34:55.068Z,96.10
2018-11-06T20:36:58.244Z,96.20
2018-11-06T20:39:04.319Z,97.20
2018-11-06T20:41:07.458Z,96.90
2018-11-06T20:43:10.644Z,96.60
2018-11-06T20:45:17.036Z,96.70
2018-11-06T20:47:20.613Z,96.60
2018-11-06T20:49:23.672Z,95.80
2018-11-06T20:51:26.816Z,96.60
2018-11-06T20:53:29.884Z,95.70
2018-11-06T20:55:35.271Z,95.70
2018-11-06T20:57:38.490Z,96.00
2018-11-06T20:59:41.621Z,95.50
2018-11-06T21:01:44.665Z,96.20
2018-11-06T21:03:47.787Z,96.10
2018-11-06T21:05:50.906Z,95.70
2018-11-06T21:07:53.972Z,96.20
2018-11-06T21:09:57.026Z,96.20
2018-11-06T21:12:00.152Z,96.10
2018-11-06T21:14:04.749Z,96.50
2018-11-06T21:16:08.192Z,96.80
2018-11-06T21:18:11.671Z,97.60
2018-11-06T21:20:15.539Z,98.00
2018-11-06T21:22:18.523Z,97.30
2018-11-06T21:24:21.616Z,97.50
2018-11-06T21:26:24.802Z,96.50
2018-11-06T21:28:28.353Z,96.80
2018-11-06T21:30:31.545Z,96.50
2018-11-06T21:32:34.751Z,96.50
2018-11-06T21:34:37.857Z,97.30
2018-11-06T21:36:41.241Z,98.10
2018-11-06T21:38:44.386Z,98.30
2018-11-06T21:40:47.467Z,98.10
2018-11-06T21:42:51.070Z,97.60
2018-11-06T21:44:54.151Z,99.70
2018-11-06T21:46:57.190Z,99.20
2018-11-06T21:49:00.671Z,99.90
2018-11-06T21:51:05.646Z,99.90
2018-11-06T21:53:08.688Z,99.90
2018-11-06T21:55:13.853Z,99.90
2018-11-06T21:57:17.590Z,99.80
2018-11-06T21:59:20.710Z,99.90
2018-11-06T22:01:23.789Z,99.90
2018-11-06T22:03:26.871Z,99.90
2018-11-06T22:05:29.934Z,99.80
2018-11-06T22:07:34.426Z,99.70
2018-11-06T22:09:37.539Z,99.90
2018-11-06T22:11:40.677Z,99.90
2018-11-06T22:13:44.643Z,99.90
2018-11-06T22:15:47.783Z,99.90
2018-11-06T22:17:50.847Z,99.90
2018-11-06T22:19:53.969Z,99.90
2018-11-06T22:21:57.112Z,99.90
2018-11-06T22:24:00.187Z,99.90
2018-11-06T22:26:04.979Z,99.90
2018-11-06T22:28:08.142Z,99.90
2018-11-06T22:30:12.602Z,99.90
2018-11-06T22:32:15.724Z,99.90
2018-11-06T22:34:18.805Z,99.90
2018-11-06T22:36:22.120Z,99.90
2018-11-06T22:38:25.323Z,99.90
2018-11-06T22:40:28.506Z,99.90
2018-11-06T22:42:32.126Z,99.90
2018-11-06T22:44:35.230Z,99.90
2018-11-06T22:46:38.323Z,99.90
2018-11-06T22:48:41.433Z,99.90
2018-11-06T22:50:44.483Z,99.90
2018-11-06T22:52:48.631Z,99.90
2018-11-06T22:54:51.809Z,99.90
2018-11-06T22:56:54.877Z,99.90
2018-11-06T22:58:58.223Z,99.90
2018-11-06T23:01:06.887Z,99.90
2018-11-06T23:03:11.492Z,99.90
2018-11-06T23:05:14.848Z,99.90
2018-11-06T23:07:23.756Z,99.90
2018-11-06T23:09:26.973Z,99.90
2018-11-06T23:11:30.030Z,99.90
2018-11-06T23:13:33.965Z,99.90
2018-11-06T23:15:37.478Z,99.90
2018-11-06T23:17:40.521Z,99.90
2018-11-06T23:19:43.606Z,99.90
2018-11-06T23:21:46.671Z,99.90
2018-11-06T23:23:49.765Z,99.90
2018-11-06T23:25:52.817Z,99.90
2018-11-06T23:27:56.157Z,99.90
2018-11-06T23:29:59.242Z,99.90
2018-11-06T23:32:02.980Z,99.90
2018-11-06T23:34:06.388Z,99.90
2018-11-06T23:36:09.481Z,99.90
2018-11-06T23:38:12.553Z,99.90
2018-11-06T23:40:15.872Z,99.90
2018-11-06T23:42:18.963Z,99.90
2018-11-06T23:44:22.025Z,99.90
2018-11-06T23:46:25.141Z,99.90
2018-11-06T23:48:28.243Z,99.90
2018-11-06T23:50:31.319Z,99.90
2018-11-06T23:52:36.003Z,99.90
2018-11-06T23:54:39.073Z,99.90
2018-11-06T23:56:42.146Z,99.90
2018-11-06T23:58:45.249Z,99.90
